Barkly West, South Africa
Current Conditions -  °F | °C
As of 2:00 PM on Monday 24 Nov 2014 (Local Time) from FABL Reporting Station
Scattered Clouds Scattered Clouds  
Wind Chill: 81°   Ceiling: Unl
Heat Index: 81°   Visibility: 6mi
Dew Point: 48°   Wind: 3mph
Humidity: 32%   Direction: 230°SW
Pressure: 30.12"   Gusts: NA
Location:  28.53°S, 24.53°E
Report Text: FABL 241200Z 23003KT 9999 SCT040TCU 27/09 Q1020 NOSIG
Loading
Personal Weather Stations






























Interactive Weather Map New forecast layout! Learn more

10-Day Weather Forecast

Advertisements
Track Severe Weather on mobile